Time;durP1;ratioP1;P1;durP2;ratioP2;P2;SDS_P1;SDS_P2;PMS_P1;PMS_P2;Temp;Humidity;BMP_temperature;BMP_pressure;BME280_temperature;BME280_humidity;BME280_pressure;Samples;Min_cycle;Max_cycle;Signal;HPM_P1;HPM_P2
2023/08/12 00:01:55;;;;;;;1.40;1.30;;;;;;;24.35;56.39;97888.44;5055879;28;20224;-32
2023/08/12 00:04:21;;;;;;;1.40;1.30;;;;;;;24.36;56.72;97887.59;5036462;28;20720;-25
2023/08/12 00:06:48;;;;;;;1.10;1.10;;;;;;;24.35;56.68;97883.31;5045695;28;20239;-23
2023/08/12 00:09:15;;;;;;;1.23;1.23;;;;;;;24.36;56.38;97892.75;5044164;28;20202;-23
2023/08/12 00:11:41;;;;;;;1.50;1.30;;;;;;;24.35;56.39;97888.44;5047955;28;20243;-23
2023/08/12 00:14:08;;;;;;;1.30;1.30;;;;;;;24.36;56.42;97894.44;5046845;28;20611;-23
2023/08/12 00:16:35;;;;;;;1.50;1.40;;;;;;;24.35;56.53;97882.44;5039539;28;20672;-23
2023/08/12 00:19:02;;;;;;;1.40;1.30;;;;;;;24.35;56.40;97878.16;5039916;28;20645;-24
2023/08/12 00:21:28;;;;;;;1.43;1.33;;;;;;;24.35;56.78;97885.88;5041811;28;20265;-23
2023/08/12 00:23:55;;;;;;;1.27;1.23;;;;;;;24.35;56.38;97882.44;5041835;28;20295;-23
2023/08/12 00:26:21;;;;;;;1.40;1.30;;;;;;;24.35;56.36;97878.16;5036097;28;20245;-32
2023/08/12 00:28:48;;;;;;;1.63;1.53;;;;;;;24.35;56.49;97872.16;5037492;28;20655;-26
2023/08/12 00:31:15;;;;;;;1.27;1.23;;;;;;;24.35;56.72;97870.47;5044787;28;20260;-23
2023/08/12 00:33:42;;;;;;;1.40;1.30;;;;;;;24.35;56.63;97870.47;5032166;28;20233;-30
2023/08/12 00:36:08;;;;;;;1.40;1.30;;;;;;;24.35;56.53;97867.00;5050076;28;20549;-23
2023/08/12 00:38:35;;;;;;;1.20;1.20;;;;;;;24.34;56.81;97863.56;5045341;28;20244;-32
2023/08/12 00:41:02;;;;;;;1.40;1.30;;;;;;;24.35;56.55;97870.47;5046244;28;20220;-23
2023/08/12 00:43:29;;;;;;;1.40;1.30;;;;;;;24.34;56.53;97867.84;5036075;28;20259;-23
2023/08/12 00:45:55;;;;;;;1.50;1.40;;;;;;;24.34;56.97;97868.72;5054198;28;20252;-24
2023/08/12 00:48:23;;;;;;;1.10;1.10;;;;;;;24.34;56.39;97866.13;5060311;28;20196;-23
2023/08/12 00:50:49;;;;;;;1.10;1.10;;;;;;;24.34;56.89;97865.28;5036038;28;20225;-23
2023/08/12 00:53:16;;;;;;;1.13;1.13;;;;;;;24.34;56.85;97867.84;5055961;28;20200;-23
2023/08/12 00:55:42;;;;;;;1.00;1.00;;;;;;;24.35;56.57;97859.31;5022427;28;20206;-28
2023/08/12 00:58:09;;;;;;;1.43;1.33;;;;;;;24.29;56.87;97862.63;5028444;28;20800;-25
2023/08/12 01:00:36;;;;;;;1.20;1.20;;;;;;;24.33;56.94;97861.84;5013866;28;20206;-23
2023/08/12 01:03:03;;;;;;;1.37;1.27;;;;;;;24.21;57.00;97835.00;5000667;28;20567;-23
2023/08/12 01:05:30;;;;;;;1.23;1.20;;;;;;;24.34;56.74;97867.84;5015270;28;20229;-32
2023/08/12 01:07:56;;;;;;;1.33;1.27;;;;;;;24.34;56.66;97855.00;5035594;28;20652;-23
2023/08/12 01:10:23;;;;;;;1.27;1.27;;;;;;;24.34;56.66;97858.44;5054516;28;20287;-23
2023/08/12 01:12:55;;;;;;;1.60;1.50;;;;;;;24.34;56.75;97849.88;5038804;28;20198;-26
2023/08/12 01:15:23;;;;;;;1.30;1.30;;;;;;;24.34;56.90;97850.72;5029647;28;20643;-28
2023/08/12 01:17:52;;;;;;;1.20;1.20;;;;;;;24.29;56.69;97833.47;5040772;28;20202;-24
2023/08/12 01:20:24;;;;;;;1.33;1.23;;;;;;;24.16;56.92;97809.19;5011163;28;20622;-23
2023/08/12 01:23:08;;;;;;;1.20;1.20;;;;;;;24.34;56.79;97829.31;5039128;28;20200;-23
2023/08/12 01:25:34;;;;;;;1.40;1.30;;;;;;;24.33;56.90;97836.16;5026367;28;20754;-24
2023/08/12 01:28:01;;;;;;;1.30;1.30;;;;;;;24.34;56.69;97826.75;5050195;28;20745;-23
2023/08/12 01:30:28;;;;;;;1.40;1.30;;;;;;;24.34;56.78;97827.59;5054514;28;20608;-23
2023/08/12 01:33:08;;;;;;;1.40;1.30;;;;;;;24.18;56.61;97787.00;5042260;28;20201;-26
2023/08/12 01:35:47;;;;;;;1.10;1.10;;;;;;;24.36;56.61;97819.94;5038098;28;20204;-23
2023/08/12 01:38:13;;;;;;;1.37;1.27;;;;;;;24.36;56.83;97817.34;5023918;28;20619;-23
2023/08/12 01:40:40;;;;;;;1.30;1.20;;;;;;;24.17;56.65;97776.69;5028923;28;20666;-23
2023/08/12 01:43:08;;;;;;;1.20;1.10;;;;;;;24.34;56.52;97808.78;5006499;28;20201;-23
2023/08/12 01:45:35;;;;;;;1.20;1.20;;;;;;;24.36;56.61;97817.34;5029712;28;20696;-24
2023/08/12 01:48:02;;;;;;;1.40;1.30;;;;;;;24.37;56.90;97812.25;5043690;28;20300;-23
2023/08/12 01:50:29;;;;;;;1.37;1.27;;;;;;;24.37;56.58;97804.56;5054043;28;20193;-26
2023/08/12 01:52:56;;;;;;;1.60;1.50;;;;;;;24.35;56.68;97806.25;5055898;28;20198;-23
2023/08/12 01:55:22;;;;;;;1.33;1.23;;;;;;;24.36;56.54;97805.41;5041742;28;20249;-23
2023/08/12 01:57:49;;;;;;;1.23;1.23;;;;;;;24.35;56.73;97798.53;5037554;28;20198;-23
2023/08/12 02:00:16;;;;;;;1.23;1.20;;;;;;;24.34;56.58;97801.06;5034101;28;20198;-25
2023/08/12 02:02:45;;;;;;;1.47;1.37;;;;;;;24.34;56.78;97795.94;5043041;28;20222;-23
2023/08/12 02:05:13;;;;;;;1.20;1.20;;;;;;;24.33;56.94;97799.31;5042102;28;20696;-23
2023/08/12 02:07:40;;;;;;;1.20;1.10;;;;;;;24.25;56.77;97782.88;5042975;28;20698;-30
2023/08/12 02:10:07;;;;;;;1.37;1.27;;;;;;;24.31;56.58;97793.28;5032793;28;20202;-23
2023/08/12 02:12:33;;;;;;;1.27;1.17;;;;;;;24.29;57.10;97790.69;5039573;28;20222;-23
2023/08/12 02:15:00;;;;;;;1.30;1.30;;;;;;;24.31;56.85;97795.84;5045182;28;20201;-23
2023/08/12 02:17:35;;;;;;;1.50;1.40;;;;;;;24.29;56.83;97793.25;5034082;28;20233;-25
2023/08/12 02:20:03;;;;;;;1.13;1.13;;;;;;;24.29;57.13;97797.50;5041344;28;20201;-23
2023/08/12 02:22:30;;;;;;;1.20;1.20;;;;;;;24.28;56.86;97799.22;5034578;28;20228;-28
2023/08/12 02:24:57;;;;;;;1.20;1.20;;;;;;;24.29;57.02;97793.25;5038634;28;20211;-23
2023/08/12 02:27:23;;;;;;;1.43;1.33;;;;;;;24.29;57.14;97797.50;5033313;28;20202;-32
2023/08/12 02:29:50;;;;;;;1.40;1.30;;;;;;;24.29;57.17;97800.09;5047301;28;20717;-23
2023/08/12 02:32:16;;;;;;;1.50;1.40;;;;;;;24.30;56.84;97797.53;5062767;28;20216;-32
2023/08/12 02:34:43;;;;;;;1.33;1.23;;;;;;;24.29;57.15;97795.81;5044709;28;20197;-25
2023/08/12 02:37:09;;;;;;;1.40;1.37;;;;;;;24.29;57.11;97790.69;5051257;28;20193;-23
2023/08/12 02:39:37;;;;;;;1.60;1.50;;;;;;;24.30;56.75;97779.56;5036781;28;20248;-30
2023/08/12 02:42:04;;;;;;;1.20;1.20;;;;;;;24.30;57.07;97776.13;5039956;28;20305;-23
2023/08/12 02:44:30;;;;;;;1.20;1.20;;;;;;;24.31;56.97;97772.75;5048293;28;20196;-24
2023/08/12 02:46:57;;;;;;;1.10;1.10;;;;;;;24.29;56.93;97767.56;5039103;28;20256;-23
2023/08/12 02:49:23;;;;;;;1.50;1.40;;;;;;;24.30;57.25;97769.28;5053169;28;20196;-35
2023/08/12 02:51:50;;;;;;;1.40;1.30;;;;;;;24.31;57.28;97765.03;5034999;28;20229;-24
2023/08/12 02:54:16;;;;;;;1.50;1.40;;;;;;;24.31;56.93;97754.75;5046820;28;20239;-25
2023/08/12 02:56:43;;;;;;;1.40;1.30;;;;;;;24.31;56.88;97759.91;5036374;28;20339;-23
2023/08/12 02:59:10;;;;;;;1.60;1.50;;;;;;;24.31;57.05;97754.75;5041730;28;20625;-25
2023/08/12 03:01:36;;;;;;;1.33;1.23;;;;;;;24.31;56.82;97775.31;5060892;28;20251;-23
2023/08/12 03:04:04;;;;;;;1.23;1.20;;;;;;;24.29;57.13;97767.56;5041941;28;20201;-23
2023/08/12 03:06:30;;;;;;;1.23;1.23;;;;;;;24.29;57.30;97777.84;5051603;28;20723;-23
2023/08/12 03:08:57;;;;;;;1.10;1.10;;;;;;;24.30;57.24;97771.88;5036538;28;20200;-23
2023/08/12 03:11:24;;;;;;;1.40;1.30;;;;;;;24.29;57.31;97770.13;5045320;28;20216;-23
2023/08/12 03:13:50;;;;;;;1.20;1.20;;;;;;;24.31;57.18;97767.59;5040822;28;20212;-26
2023/08/12 03:16:17;;;;;;;1.33;1.27;;;;;;;24.31;56.91;97773.59;5038699;28;20196;-23
2023/08/12 03:18:44;;;;;;;1.67;1.57;;;;;;;24.31;57.31;97765.03;5047326;28;20254;-23
2023/08/12 03:21:10;;;;;;;1.50;1.40;;;;;;;24.30;56.82;97768.41;5038459;28;20271;-30
2023/08/12 03:23:37;;;;;;;1.20;1.20;;;;;;;24.30;56.97;97769.28;5041883;28;20213;-24
2023/08/12 03:26:04;;;;;;;1.30;1.20;;;;;;;24.31;57.10;97772.75;5041770;28;20308;-23
2023/08/12 03:28:30;;;;;;;1.33;1.23;;;;;;;24.29;56.99;97772.72;5051585;28;20586;-23
2023/08/12 03:30:57;;;;;;;1.50;1.40;;;;;;;24.30;57.26;97778.69;5043134;28;20213;-28
2023/08/12 03:33:24;;;;;;;1.40;1.30;;;;;;;24.29;57.02;97774.41;5055129;28;20615;-23
2023/08/12 03:35:50;;;;;;;1.50;1.40;;;;;;;24.31;56.84;97785.59;5039210;28;20276;-23
2023/08/12 03:38:17;;;;;;;1.50;1.40;;;;;;;24.31;57.13;97775.31;5044111;28;20293;-32
2023/08/12 03:40:43;;;;;;;1.50;1.40;;;;;;;24.29;57.22;97769.25;5035027;28;20266;-25
2023/08/12 03:43:10;;;;;;;1.50;1.40;;;;;;;24.30;57.07;97773.56;5042312;28;20225;-30
2023/08/12 03:45:41;;;;;;;1.50;1.40;;;;;;;24.29;56.98;97774.41;5051329;28;20211;-23
2023/08/12 03:48:08;;;;;;;1.23;1.20;;;;;;;24.29;56.86;97779.53;5040643;28;20198;-40
2023/08/12 03:50:36;;;;;;;1.50;1.40;;;;;;;24.29;57.05;97769.25;5041161;28;20599;-23
2023/08/12 03:53:02;;;;;;;1.50;1.40;;;;;;;24.29;56.83;97765.00;5036094;28;20205;-23
2023/08/12 03:55:32;;;;;;;1.27;1.27;;;;;;;24.30;56.88;97769.28;5045102;28;20206;-23
2023/08/12 03:57:59;;;;;;;1.40;1.30;;;;;;;24.30;57.08;97763.28;5037668;28;20205;-23
2023/08/12 04:00:26;;;;;;;1.40;1.30;;;;;;;24.31;57.21;97759.91;5052631;28;20204;-23
2023/08/12 04:02:53;;;;;;;1.40;1.30;;;;;;;24.29;57.26;97767.56;5047665;28;20249;-24
2023/08/12 04:05:19;;;;;;;1.50;1.40;;;;;;;24.31;57.22;97772.75;5044507;28;20225;-23
2023/08/12 04:07:46;;;;;;;1.60;1.40;;;;;;;24.30;57.25;97766.72;5049670;28;20216;-23
2023/08/12 04:10:13;;;;;;;1.57;1.47;;;;;;;24.29;57.34;97767.56;5040391;28;20221;-23
2023/08/12 04:12:40;;;;;;;1.63;1.53;;;;;;;24.25;57.14;97758.03;5049124;28;20225;-23
2023/08/12 04:15:07;;;;;;;1.40;1.30;;;;;;;24.29;57.37;97770.13;5048547;28;20202;-23
2023/08/12 04:17:34;;;;;;;1.33;1.30;;;;;;;24.30;57.09;97777.00;5037986;28;20248;-23
2023/08/12 04:20:00;;;;;;;1.47;1.37;;;;;;;24.30;56.91;97773.56;5050516;28;20202;-23
2023/08/12 04:22:27;;;;;;;1.40;1.30;;;;;;;24.30;57.32;97770.97;5045106;28;20228;-30
2023/08/12 04:24:54;;;;;;;1.20;1.20;;;;;;;24.29;57.08;97770.13;5052741;28;20202;-23
2023/08/12 04:27:21;;;;;;;1.40;1.30;;;;;;;24.29;57.40;97770.13;5042879;28;20218;-23
2023/08/12 04:29:47;;;;;;;1.60;1.50;;;;;;;24.30;57.12;97769.28;5050593;28;20200;-23
2023/08/12 04:32:14;;;;;;;1.30;1.20;;;;;;;24.31;57.12;97773.59;5041619;28;20267;-24
2023/08/12 04:34:40;;;;;;;1.37;1.27;;;;;;;24.32;57.21;97774.47;5046277;28;20225;-24
2023/08/12 04:37:07;;;;;;;1.20;1.20;;;;;;;24.29;57.06;97772.72;5034663;28;20229;-23
2023/08/12 04:39:33;;;;;;;1.50;1.40;;;;;;;24.31;56.98;97775.31;5052816;28;20725;-23
2023/08/12 04:42:00;;;;;;;1.50;1.40;;;;;;;24.29;57.38;97770.13;5048886;28;20249;-32
2023/08/12 04:44:27;;;;;;;1.37;1.30;;;;;;;24.31;57.31;97772.75;5038456;28;20673;-23
2023/08/12 04:46:54;;;;;;;1.50;1.40;;;;;;;24.30;57.39;97766.72;5049933;28;20549;-23
2023/08/12 04:49:21;;;;;;;1.50;1.40;;;;;;;24.30;57.01;97768.41;5044218;28;20197;-23
2023/08/12 04:51:47;;;;;;;1.37;1.27;;;;;;;24.31;57.46;97759.91;5048323;28;20233;-23
2023/08/12 04:54:14;;;;;;;1.53;1.43;;;;;;;24.30;57.42;97763.28;5039612;28;20201;-23
2023/08/12 04:56:40;;;;;;;1.40;1.30;;;;;;;24.31;57.13;97772.75;5042731;28;20202;-23
2023/08/12 04:59:08;;;;;;;1.27;1.27;;;;;;;24.30;57.10;97769.28;5053147;28;20202;-25
2023/08/12 05:01:34;;;;;;;1.50;1.40;;;;;;;24.30;57.33;97771.88;5043205;28;20304;-32
2023/08/12 05:04:01;;;;;;;1.50;1.40;;;;;;;24.30;57.16;97768.41;5051359;28;20205;-23
2023/08/12 05:06:28;;;;;;;1.20;1.20;;;;;;;24.31;57.12;97771.00;5041127;28;20279;-23
2023/08/12 05:08:54;;;;;;;1.50;1.40;;;;;;;24.30;57.14;97769.28;5049073;28;20232;-23
2023/08/12 05:11:21;;;;;;;1.60;1.50;;;;;;;24.31;57.34;97777.88;5051387;28;20279;-23
2023/08/12 05:13:47;;;;;;;1.40;1.30;;;;;;;24.31;57.21;97770.19;5048682;28;20202;-27
2023/08/12 05:16:14;;;;;;;1.50;1.40;;;;;;;24.29;56.99;97766.69;5056727;28;20291;-24
2023/08/12 05:18:40;;;;;;;2.67;1.30;;;;;;;24.32;57.21;97771.91;5038181;28;20632;-23
2023/08/12 05:21:07;;;;;;;1.40;1.30;;;;;;;24.32;57.00;97759.94;5039929;28;20305;-23
2023/08/12 05:23:33;;;;;;;1.33;1.30;;;;;;;24.32;57.40;97762.50;5048267;28;20291;-30
2023/08/12 05:26:00;;;;;;;1.60;1.50;;;;;;;24.33;57.21;97763.34;5039230;28;20693;-23
2023/08/12 05:28:27;;;;;;;1.33;1.30;;;;;;;24.32;57.01;97769.31;5045446;28;20196;-23
2023/08/12 05:30:55;;;;;;;1.20;1.20;;;;;;;24.34;57.46;97765.09;5039521;28;20225;-23
2023/08/12 05:33:22;;;;;;;1.40;1.30;;;;;;;24.34;57.39;97765.09;5051942;28;20296;-26
2023/08/12 05:35:48;;;;;;;1.43;1.33;;;;;;;24.31;57.41;97767.59;5040460;28;20632;-24
2023/08/12 05:38:15;;;;;;;1.10;1.10;;;;;;;24.33;57.10;97781.31;5043755;28;20236;-23
2023/08/12 05:40:42;;;;;;;1.60;1.50;;;;;;;24.33;57.37;97773.63;5033624;28;20271;-23
2023/08/12 05:43:08;;;;;;;1.30;1.30;;;;;;;24.32;57.38;97761.63;5040324;28;20229;-28
2023/08/12 05:45:35;;;;;;;1.60;1.50;;;;;;;24.32;57.05;97753.91;5055438;28;20262;-24
2023/08/12 05:48:01;;;;;;;1.50;1.40;;;;;;;24.30;57.97;97746.19;5045154;28;20650;-23
2023/08/12 05:50:28;;;;;;;1.60;1.50;;;;;;;24.29;57.47;97746.13;5042542;28;20204;-23
2023/08/12 05:52:55;;;;;;;1.60;1.50;;;;;;;24.29;57.23;97746.13;5035256;28;20738;-29
2023/08/12 05:55:21;;;;;;;1.47;1.37;;;;;;;24.28;57.31;97752.13;5048892;28;20192;-27
2023/08/12 05:57:48;;;;;;;1.60;1.50;;;;;;;24.26;57.08;97759.78;5045440;28;20225;-24
2023/08/12 06:00:14;;;;;;;1.27;1.23;;;;;;;24.27;57.61;97763.22;5032803;28;20263;-33
2023/08/12 06:02:41;;;;;;;1.47;1.37;;;;;;;24.26;57.50;97764.94;5048682;28;20267;-37
2023/08/12 06:05:08;;;;;;;1.50;1.40;;;;;;;24.27;57.54;97768.34;5032957;28;20197;-26
2023/08/12 06:07:34;;;;;;;1.43;1.33;;;;;;;24.26;57.62;97767.50;5042990;28;20232;-23
2023/08/12 06:10:01;;;;;;;1.20;1.20;;;;;;;24.26;57.34;97769.19;5037417;28;20634;-50
2023/08/12 06:12:28;;;;;;;1.50;1.40;;;;;;;24.26;57.58;97772.63;5046807;28;20220;-26
2023/08/12 06:14:54;;;;;;;1.20;1.20;;;;;;;24.26;57.33;97764.94;5046706;28;20200;-23
2023/08/12 06:17:21;;;;;;;1.50;1.40;;;;;;;24.26;57.54;97767.50;5046053;28;20190;-23
2023/08/12 06:19:47;;;;;;;1.40;1.30;;;;;;;24.27;57.42;97769.22;5043477;28;20267;-23
2023/08/12 06:22:14;;;;;;;1.57;1.47;;;;;;;24.27;57.50;97776.06;5050229;28;20271;-27
2023/08/12 06:24:41;;;;;;;1.70;1.60;;;;;;;24.27;57.27;97774.38;5041244;28;20198;-23
2023/08/12 06:27:07;;;;;;;1.23;1.20;;;;;;;24.27;57.71;97773.47;5038378;28;20235;-23
2023/08/12 06:29:34;;;;;;;1.27;1.27;;;;;;;24.28;57.54;97775.25;5039873;28;20201;-37
2023/08/12 06:32:01;;;;;;;1.40;1.30;;;;;;;24.28;57.40;97772.69;5038790;28;20225;-23
2023/08/12 06:34:27;;;;;;;1.50;1.40;;;;;;;24.27;57.42;97758.94;5042609;28;20246;-23
2023/08/12 06:36:54;;;;;;;1.50;1.40;;;;;;;24.28;57.20;97750.41;5040973;28;20197;-23
2023/08/12 06:39:20;;;;;;;1.40;1.30;;;;;;;24.28;57.26;97760.69;5041353;28;20201;-28
2023/08/12 06:41:47;;;;;;;1.37;1.27;;;;;;;24.27;57.44;97751.25;5047807;28;20229;-23
2023/08/12 06:44:13;;;;;;;1.60;1.50;;;;;;;24.28;57.58;97754.69;5037914;28;20232;-23
2023/08/12 06:46:40;;;;;;;1.50;1.40;;;;;;;24.28;57.46;97747.00;5036444;28;20244;-23
2023/08/12 06:49:07;;;;;;;1.63;1.53;;;;;;;24.29;57.03;97748.72;5036662;28;20672;-23
2023/08/12 06:51:33;;;;;;;1.50;1.40;;;;;;;24.28;57.59;97741.84;5067310;22;20242;-28
2023/08/12 06:54:00;;;;;;;1.20;1.20;;;;;;;24.27;57.50;97743.53;5054521;28;20211;-28
2023/08/12 06:56:27;;;;;;;1.50;1.40;;;;;;;24.27;57.45;97743.53;5057282;28;20246;-28
2023/08/12 06:58:53;;;;;;;1.50;1.40;;;;;;;24.28;57.43;97750.41;5069105;28;20208;-35
2023/08/12 07:01:20;;;;;;;1.50;1.40;;;;;;;24.28;57.65;97739.28;5071643;28;20249;-28
2023/08/12 07:03:46;;;;;;;1.50;1.40;;;;;;;24.29;57.22;97735.88;5063096;28;20232;-28
2023/08/12 07:06:13;;;;;;;1.50;1.40;;;;;;;24.28;57.36;97734.16;5071515;28;20239;-28
2023/08/12 07:08:40;;;;;;;1.47;1.37;;;;;;;24.26;57.46;97730.66;5070722;28;20645;-30
2023/08/12 07:11:06;;;;;;;1.60;1.50;;;;;;;24.29;57.67;97735.88;5070312;28;20253;-28
2023/08/12 07:13:33;;;;;;;1.50;1.40;;;;;;;24.29;57.47;97738.44;5071424;28;20208;-28
2023/08/12 07:16:00;;;;;;;1.50;1.40;;;;;;;24.28;57.17;97740.13;5073026;28;20434;-27
2023/08/12 07:18:28;;;;;;;1.60;1.50;;;;;;;24.29;57.50;97733.28;5071224;28;20196;-28
2023/08/12 07:20:55;;;;;;;1.10;1.10;;;;;;;24.29;57.26;97735.88;5071156;28;20208;-27
2023/08/12 07:23:22;;;;;;;1.50;1.40;;;;;;;24.28;57.68;97729.84;5071276;28;20306;-28
2023/08/12 07:25:48;;;;;;;1.53;1.43;;;;;;;24.29;57.47;97730.72;5071478;28;20227;-29
2023/08/12 07:28:15;;;;;;;1.47;1.37;;;;;;;24.28;57.46;97735.00;5063831;28;20287;-28
2023/08/12 07:30:41;;;;;;;1.37;1.30;;;;;;;24.28;57.25;97729.84;5071469;28;20204;-28
2023/08/12 07:33:08;;;;;;;1.50;1.40;;;;;;;24.29;57.24;97729.03;5070837;28;20748;-28
2023/08/12 07:35:35;;;;;;;1.67;1.57;;;;;;;24.29;57.24;97731.59;5071269;28;20212;-33
2023/08/12 07:38:01;;;;;;;1.30;1.20;;;;;;;24.31;57.26;97734.22;5070918;28;20196;-27
2023/08/12 07:40:28;;;;;;;1.50;1.40;;;;;;;24.29;57.34;97720.47;5071422;28;20200;-28
2023/08/12 07:42:55;;;;;;;1.53;1.43;;;;;;;24.30;57.17;97725.63;5071161;28;20490;-28
2023/08/12 07:45:21;;;;;;;1.40;1.30;;;;;;;24.30;57.49;97714.47;5071131;28;20204;-29
2023/08/12 07:47:49;;;;;;;1.50;1.40;;;;;;;24.31;57.45;97723.94;5073604;28;20220;-29
2023/08/12 07:50:15;;;;;;;1.40;1.30;;;;;;;24.31;57.26;97726.50;5075449;28;20571;-27
2023/08/12 07:52:42;;;;;;;1.40;1.30;;;;;;;24.30;57.50;97723.06;5072357;28;20227;-28
2023/08/12 07:55:09;;;;;;;1.43;1.33;;;;;;;24.30;57.27;97723.06;5075059;28;20204;-28
2023/08/12 07:57:35;;;;;;;1.60;1.50;;;;;;;24.29;57.26;97717.88;5074973;28;20200;-28
2023/08/12 08:00:02;;;;;;;1.27;1.27;;;;;;;24.28;57.28;97719.56;5075058;28;20231;-35
2023/08/12 08:02:29;;;;;;;1.33;1.30;;;;;;;24.28;57.19;97713.59;5074641;28;20655;-27
2023/08/12 08:04:56;;;;;;;1.50;1.40;;;;;;;24.31;57.66;97726.50;5075133;28;20265;-27
2023/08/12 08:07:22;;;;;;;1.50;1.40;;;;;;;24.26;57.34;97720.38;5075037;28;20593;-31
2023/08/12 08:09:49;;;;;;;1.50;1.40;;;;;;;24.29;57.37;97728.16;5072950;28;20224;-28
2023/08/12 08:12:15;;;;;;;1.33;1.27;;;;;;;24.29;57.24;97728.16;5039630;28;20686;-28
2023/08/12 08:14:42;;;;;;;1.17;1.17;;;;;;;24.28;57.51;97724.72;5074832;28;20207;-28
2023/08/12 08:17:09;;;;;;;1.50;1.40;;;;;;;24.29;57.31;97720.47;5074662;28;20200;-29
2023/08/12 08:19:35;;;;;;;1.37;1.27;;;;;;;24.28;56.96;97717.00;5074844;28;20208;-28
2023/08/12 08:22:03;;;;;;;1.37;1.27;;;;;;;24.29;57.17;97718.75;5074434;28;20231;-27
2023/08/12 08:24:29;;;;;;;1.60;1.50;;;;;;;24.29;57.50;97729.03;5074855;28;20671;-29
2023/08/12 08:26:56;;;;;;;1.50;1.40;;;;;;;24.29;57.15;97739.31;5074616;28;20223;-39
2023/08/12 08:29:23;;;;;;;1.30;1.20;;;;;;;24.28;57.36;97737.56;5066549;28;20245;-28
2023/08/12 08:31:49;;;;;;;1.40;1.30;;;;;;;24.19;57.36;97719.38;5074571;28;20216;-29
2023/08/12 08:34:16;;;;;;;1.40;1.30;;;;;;;24.26;57.38;97725.53;5056753;28;20204;-28
2023/08/12 08:36:43;;;;;;;1.57;1.47;;;;;;;24.29;57.21;97733.28;5074766;28;20200;-27
2023/08/12 08:39:09;;;;;;;1.50;1.40;;;;;;;24.29;57.48;97738.44;5068619;28;20249;-32
2023/08/12 08:41:38;;;;;;;1.20;1.20;;;;;;;24.28;57.00;97740.13;5074875;28;20269;-28
2023/08/12 08:44:07;;;;;;;1.50;1.40;;;;;;;24.29;57.50;97725.59;5073893;28;20204;-28
2023/08/12 08:46:34;;;;;;;1.40;1.30;;;;;;;24.27;57.32;97719.53;5074390;28;20211;-35
2023/08/12 08:49:00;;;;;;;1.33;1.30;;;;;;;24.28;57.19;97727.28;5074025;28;20598;-27
2023/08/12 08:51:33;;;;;;;1.50;1.40;;;;;;;24.29;57.26;97730.72;5074181;28;20216;-28
2023/08/12 08:54:04;;;;;;;1.10;1.10;;;;;;;24.29;57.42;97725.59;5073926;28;20623;-29
2023/08/12 08:56:33;;;;;;;1.43;1.33;;;;;;;24.28;57.44;97732.41;5073992;28;20659;-30
2023/08/12 08:59:04;;;;;;;1.40;1.30;;;;;;;24.23;57.28;97726.34;5039935;28;20286;-29
2023/08/12 09:01:31;;;;;;;1.40;1.30;;;;;;;24.29;57.02;97734.19;5056509;28;20220;-28
2023/08/12 09:03:58;;;;;;;1.43;1.33;;;;;;;24.31;57.37;97734.22;5055911;28;20759;-29
2023/08/12 09:06:25;;;;;;;1.37;1.30;;;;;;;24.32;57.30;97730.78;5073909;28;20726;-28
2023/08/12 09:08:52;;;;;;;1.37;1.27;;;;;;;24.32;57.14;97736.81;5072154;28;20721;-28
2023/08/12 09:11:18;;;;;;;1.37;1.27;;;;;;;24.32;57.14;97731.69;5055259;28;20455;-27
2023/08/12 09:13:46;;;;;;;1.40;1.30;;;;;;;24.33;57.20;97729.94;5073803;28;20203;-28
2023/08/12 09:16:13;;;;;;;1.43;1.33;;;;;;;24.34;56.80;97731.72;5073752;28;20196;-28
2023/08/12 09:18:40;;;;;;;1.17;1.17;;;;;;;24.33;56.97;97727.38;5073774;28;20275;-28
2023/08/12 09:21:07;;;;;;;1.43;1.33;;;;;;;24.32;57.23;97726.53;5073438;28;20545;-28
2023/08/12 09:23:37;;;;;;;1.20;1.20;;;;;;;24.32;57.06;97735.94;5039370;28;20279;-28
2023/08/12 09:26:17;;;;;;;1.20;1.20;;;;;;;24.31;57.28;97727.34;5055970;28;20200;-29
2023/08/12 09:28:44;;;;;;;1.40;1.30;;;;;;;24.29;56.87;97726.47;5069900;28;20706;-28
2023/08/12 09:31:27;;;;;;;1.30;1.30;;;;;;;24.29;57.06;97723.03;5073563;28;20204;-28
2023/08/12 09:34:04;;;;;;;1.17;1.17;;;;;;;24.28;57.11;97729.00;5073450;28;20203;-28
2023/08/12 09:36:31;;;;;;;1.47;1.37;;;;;;;24.25;57.35;97722.09;5065880;28;20200;-27
2023/08/12 09:39:00;;;;;;;1.20;1.20;;;;;;;24.26;57.28;97731.53;5073436;28;20219;-27
2023/08/12 09:41:28;;;;;;;1.40;1.30;;;;;;;24.26;57.41;97728.09;5069864;28;20710;-28
2023/08/12 09:43:55;;;;;;;1.20;1.20;;;;;;;24.26;57.31;97728.09;5068485;28;20196;-31
2023/08/12 09:46:23;;;;;;;1.20;1.20;;;;;;;24.25;57.11;97726.38;5065089;28;20201;-28
2023/08/12 09:48:51;;;;;;;1.20;1.20;;;;;;;24.25;57.25;97731.50;5073130;28;20220;-28
2023/08/12 09:51:18;;;;;;;1.20;1.20;;;;;;;24.25;57.17;97732.34;5071443;28;20234;-28
2023/08/12 09:53:46;;;;;;;1.33;1.23;;;;;;;24.25;57.19;97729.78;5072952;28;20232;-28
2023/08/12 09:56:13;;;;;;;1.47;1.37;;;;;;;24.25;57.15;97718.66;5054036;28;20662;-28
2023/08/12 09:58:42;;;;;;;1.40;1.30;;;;;;;24.25;57.61;97727.22;5031818;28;20203;-27
2023/08/12 10:01:10;;;;;;;1.40;1.30;;;;;;;24.25;57.22;97727.22;5055574;28;20204;-29
2023/08/12 10:03:37;;;;;;;1.33;1.27;;;;;;;24.25;57.07;97722.09;5072726;28;20211;-30
2023/08/12 10:06:03;;;;;;;1.40;1.30;;;;;;;24.25;57.02;97718.66;5072938;28;20566;-29
2023/08/12 10:08:30;;;;;;;1.40;1.30;;;;;;;24.26;57.08;97720.38;5059176;28;20216;-28
2023/08/12 10:10:57;;;;;;;1.30;1.20;;;;;;;24.26;57.16;97718.69;5034942;28;20200;-28
2023/08/12 10:13:38;;;;;;;1.20;1.20;;;;;;;24.17;57.25;97704.78;5049884;28;20196;-28
2023/08/12 10:16:05;;;;;;;1.50;1.40;;;;;;;24.25;57.26;97710.97;5038469;28;20239;-28
2023/08/12 10:18:31;;;;;;;1.40;1.30;;;;;;;24.25;57.35;97711.81;5038345;28;20200;-28
2023/08/12 10:20:58;;;;;;;1.40;1.30;;;;;;;24.25;57.08;97721.22;5038309;28;20258;-35
2023/08/12 10:23:25;;;;;;;1.30;1.30;;;;;;;24.27;57.07;97719.53;5037875;28;20231;-28
2023/08/12 10:25:55;;;;;;;1.33;1.23;;;;;;;24.26;57.35;97704.97;5072882;28;20236;-27
2023/08/12 10:28:21;;;;;;;1.30;1.30;;;;;;;24.26;57.35;97711.00;5072309;28;20594;-28
2023/08/12 10:30:48;;;;;;;1.20;1.20;;;;;;;24.26;57.53;97698.16;5072244;28;20666;-28
2023/08/12 10:33:18;;;;;;;1.20;1.20;;;;;;;24.27;57.41;97694.75;5053387;28;20231;-28
2023/08/12 10:35:45;;;;;;;1.50;1.40;;;;;;;24.27;57.09;97693.88;5071952;28;20196;-27
2023/08/12 10:38:13;;;;;;;1.20;1.20;;;;;;;24.27;57.37;97696.44;5072376;28;20232;-27
2023/08/12 10:40:40;;;;;;;1.13;1.13;;;;;;;24.27;57.04;97689.59;5072110;28;20250;-27
2023/08/12 10:43:07;;;;;;;1.40;1.30;;;;;;;24.27;57.32;97689.59;5054472;28;20224;-29
2023/08/12 10:45:52;;;;;;;1.27;1.23;;;;;;;24.28;57.12;97690.47;5066891;28;20201;-28
2023/08/12 10:48:23;;;;;;;1.40;1.30;;;;;;;24.27;57.36;97686.16;5071765;28;20223;-28
2023/08/12 10:50:54;;;;;;;1.33;1.27;;;;;;;24.26;57.03;97680.19;5054998;28;20283;-28
2023/08/12 10:53:29;;;;;;;1.33;1.30;;;;;;;24.27;57.40;97684.47;5071744;28;20605;-28
2023/08/12 10:55:57;;;;;;;1.20;1.20;;;;;;;24.27;56.91;97683.59;5071830;28;20581;-27
2023/08/12 10:58:46;;;;;;;1.10;1.10;;;;;;;24.27;57.15;97678.44;5071680;28;20254;-30
2023/08/12 11:01:19;;;;;;;1.50;1.40;;;;;;;24.26;57.22;97675.03;5071583;28;20192;-28
2023/08/12 11:03:47;;;;;;;1.37;1.27;;;;;;;24.26;57.17;97677.59;5071572;28;20200;-29
2023/08/12 11:06:14;;;;;;;1.40;1.30;;;;;;;24.26;57.25;97672.47;5071573;28;20196;-28
2023/08/12 11:08:47;;;;;;;1.43;1.33;;;;;;;24.26;57.02;97669.91;5053734;28;20220;-28
2023/08/12 11:11:22;;;;;;;1.40;1.30;;;;;;;24.27;57.03;97675.88;5068451;28;20227;-28
2023/08/12 11:13:57;;;;;;;1.50;1.40;;;;;;;24.25;57.05;97670.72;5071713;28;20199;-35
2023/08/12 11:16:36;;;;;;;1.20;1.20;;;;;;;24.26;57.41;97667.31;5071415;28;20203;-28
2023/08/12 11:19:04;;;;;;;1.40;1.30;;;;;;;24.25;57.35;97657.88;5053533;28;20192;-27
2023/08/12 11:21:30;;;;;;;1.50;1.40;;;;;;;24.26;57.45;97658.75;5070743;28;20223;-31
2023/08/12 11:23:57;;;;;;;1.40;1.30;;;;;;;24.25;57.48;97660.44;5071551;28;20325;-28
2023/08/12 11:26:23;;;;;;;1.40;1.30;;;;;;;24.26;57.21;97659.63;5071430;28;20605;-28
2023/08/12 11:28:50;;;;;;;1.50;1.40;;;;;;;24.26;57.24;97651.91;5071395;28;20628;-27
2023/08/12 11:31:17;;;;;;;1.30;1.20;;;;;;;24.20;57.18;97636.38;5071187;28;20250;-30
2023/08/12 11:33:43;;;;;;;1.20;1.20;;;;;;;24.27;57.04;97645.06;5036856;28;20200;-27
2023/08/12 11:36:10;;;;;;;1.50;1.40;;;;;;;24.27;57.26;97640.78;5071380;28;20192;-27